sensor_id;sensor_type;location;lat;lon;timestamp;pressure;altitude;pressure_sealevel;temperature;humidity
19096;BME280;9680;52.520;13.332;2023-12-14T00:02:08;100302.59;;;4.52;98.31
19096;BME280;9680;52.520;13.332;2023-12-14T00:04:34;100309.47;;;4.51;98.32
19096;BME280;9680;52.520;13.332;2023-12-14T00:07:03;100313.72;;;4.52;98.17
19096;BME280;9680;52.520;13.332;2023-12-14T00:09:29;100321.66;;;4.45;98.67
19096;BME280;9680;52.520;13.332;2023-12-14T00:11:56;100320.84;;;4.41;98.57
19096;BME280;9680;52.520;13.332;2023-12-14T00:14:23;100322.47;;;4.47;99.05
19096;BME280;9680;52.520;13.332;2023-12-14T00:16:49;100327.56;;;4.48;98.87
19096;BME280;9680;52.520;13.332;2023-12-14T00:19:16;100333.66;;;4.46;98.79
19096;BME280;9680;52.520;13.332;2023-12-14T00:21:43;100341.22;;;4.54;98.97
19096;BME280;9680;52.520;13.332;2023-12-14T00:24:11;100342.13;;;4.52;98.85
19096;BME280;9680;52.520;13.332;2023-12-14T00:26:38;100343.84;;;4.52;98.77
19096;BME280;9680;52.520;13.332;2023-12-14T00:29:04;100349.72;;;4.60;99.17
19096;BME280;9680;52.520;13.332;2023-12-14T00:31:31;100349.53;;;4.70;98.64
19096;BME280;9680;52.520;13.332;2023-12-14T00:33:58;100361.69;;;4.63;98.11
19096;BME280;9680;52.520;13.332;2023-12-14T00:36:24;100362.63;;;4.60;98.44
19096;BME280;9680;52.520;13.332;2023-12-14T00:38:51;100359.09;;;4.66;98.42
19096;BME280;9680;52.520;13.332;2023-12-14T00:41:19;100371.91;;;4.69;98.30
19096;BME280;9680;52.520;13.332;2023-12-14T00:43:46;100375.28;;;4.73;97.92
19096;BME280;9680;52.520;13.332;2023-12-14T00:46:13;100374.69;;;4.58;97.15
19096;BME280;9680;52.520;13.332;2023-12-14T00:48:39;100379.22;;;4.47;97.53
19096;BME280;9680;52.520;13.332;2023-12-14T00:51:06;100384.59;;;4.34;97.27
19096;BME280;9680;52.520;13.332;2023-12-14T00:53:32;100389.09;;;4.21;97.67
19096;BME280;9680;52.520;13.332;2023-12-14T00:55:59;100391.75;;;4.17;98.62
19096;BME280;9680;52.520;13.332;2023-12-14T00:58:27;100396.13;;;4.12;98.50
19096;BME280;9680;52.520;13.332;2023-12-14T01:00:54;100406.56;;;4.05;98.64
19096;BME280;9680;52.520;13.332;2023-12-14T01:03:21;100403.19;;;4.02;99.29
19096;BME280;9680;52.520;13.332;2023-12-14T01:05:47;100405.81;;;3.99;98.94
19096;BME280;9680;52.520;13.332;2023-12-14T01:08:14;100411.09;;;3.91;99.26
19096;BME280;9680;52.520;13.332;2023-12-14T01:10:41;100418.00;;;3.89;99.89
19096;BME280;9680;52.520;13.332;2023-12-14T01:13:08;100409.44;;;3.85;99.98
19096;BME280;9680;52.520;13.332;2023-12-14T01:15:36;100417.22;;;3.84;100.00
19096;BME280;9680;52.520;13.332;2023-12-14T01:18:03;100422.31;;;3.87;100.00
19096;BME280;9680;52.520;13.332;2023-12-14T01:20:30;100423.91;;;3.94;100.00
19096;BME280;9680;52.520;13.332;2023-12-14T01:22:57;100437.63;;;3.96;100.00
19096;BME280;9680;52.520;13.332;2023-12-14T01:25:24;100435.94;;;3.93;99.86
19096;BME280;9680;52.520;13.332;2023-12-14T01:27:50;100437.66;;;3.94;100.00
19096;BME280;9680;52.520;13.332;2023-12-14T01:30:17;100438.50;;;3.95;99.91
19096;BME280;9680;52.520;13.332;2023-12-14T01:32:45;100441.16;;;3.90;99.42
19096;BME280;9680;52.520;13.332;2023-12-14T01:35:11;100446.38;;;3.84;99.40
19096;BME280;9680;52.520;13.332;2023-12-14T01:37:38;100455.88;;;3.84;99.36
19096;BME280;9680;52.520;13.332;2023-12-14T01:40:06;100455.00;;;3.85;99.22
19096;BME280;9680;52.520;13.332;2023-12-14T01:42:33;100459.28;;;3.86;99.52
19096;BME280;9680;52.520;13.332;2023-12-14T01:44:59;100463.59;;;3.82;98.97
19096;BME280;9680;52.520;13.332;2023-12-14T01:47:26;100468.78;;;3.81;99.10
19096;BME280;9680;52.520;13.332;2023-12-14T01:49:54;100465.38;;;3.78;98.80
19096;BME280;9680;52.520;13.332;2023-12-14T01:52:21;100475.78;;;3.72;98.68
19096;BME280;9680;52.520;13.332;2023-12-14T01:54:47;100469.84;;;3.64;98.64
19096;BME280;9680;52.520;13.332;2023-12-14T01:57:14;100474.16;;;3.65;98.96
19096;BME280;9680;52.520;13.332;2023-12-14T01:59:41;100475.88;;;3.64;98.15
19096;BME280;9680;52.520;13.332;2023-12-14T02:02:07;100486.28;;;3.57;98.21
19096;BME280;9680;52.520;13.332;2023-12-14T02:04:34;100483.69;;;3.57;98.66
19096;BME280;9680;52.520;13.332;2023-12-14T02:07:04;100485.31;;;3.64;99.31
19096;BME280;9680;52.520;13.332;2023-12-14T02:09:31;100493.00;;;3.70;98.68
19096;BME280;9680;52.520;13.332;2023-12-14T02:11:57;100490.47;;;3.67;98.81
19096;BME280;9680;52.520;13.332;2023-12-14T02:14:24;100494.66;;;3.73;98.49
19096;BME280;9680;52.520;13.332;2023-12-14T02:16:51;100492.16;;;3.68;97.91
19096;BME280;9680;52.520;13.332;2023-12-14T02:19:17;100489.66;;;3.60;97.49
19096;BME280;9680;52.520;13.332;2023-12-14T02:21:44;100491.53;;;3.49;97.82
19096;BME280;9680;52.520;13.332;2023-12-14T02:24:12;100497.56;;;3.48;98.64
19096;BME280;9680;52.520;13.332;2023-12-14T02:26:39;100493.28;;;3.47;98.91
19096;BME280;9680;52.520;13.332;2023-12-14T02:29:05;100498.44;;;3.45;98.77
19096;BME280;9680;52.520;13.332;2023-12-14T02:31:32;100501.81;;;3.52;98.68
19096;BME280;9680;52.520;13.332;2023-12-14T02:33:58;100503.53;;;3.48;99.23
19096;BME280;9680;52.520;13.332;2023-12-14T02:36:25;100507.81;;;3.51;98.69
19096;BME280;9680;52.520;13.332;2023-12-14T02:38:52;100506.16;;;3.47;98.71
19096;BME280;9680;52.520;13.332;2023-12-14T02:41:20;100507.00;;;3.47;98.97
19096;BME280;9680;52.520;13.332;2023-12-14T02:43:46;100512.97;;;3.51;98.82
19096;BME280;9680;52.520;13.332;2023-12-14T02:46:13;100511.31;;;3.47;98.66
19096;BME280;9680;52.520;13.332;2023-12-14T02:48:41;100515.56;;;3.51;98.99
19096;BME280;9680;52.520;13.332;2023-12-14T02:51:12;100512.91;;;3.56;99.26
19096;BME280;9680;52.520;13.332;2023-12-14T02:53:39;100511.97;;;3.61;99.05
19096;BME280;9680;52.520;13.332;2023-12-14T02:56:08;100516.31;;;3.58;98.24
19096;BME280;9680;52.520;13.332;2023-12-14T02:58:36;100516.38;;;3.53;98.46
19096;BME280;9680;52.520;13.332;2023-12-14T03:01:03;100517.19;;;3.58;98.73
19096;BME280;9680;52.520;13.332;2023-12-14T03:03:30;100519.63;;;3.68;98.98
19096;BME280;9680;52.520;13.332;2023-12-14T03:05:57;100533.31;;;3.73;98.62
19096;BME280;9680;52.520;13.332;2023-12-14T03:08:23;100535.13;;;3.66;98.03
19096;BME280;9680;52.520;13.332;2023-12-14T03:10:50;100542.88;;;3.63;97.79
19096;BME280;9680;52.520;13.332;2023-12-14T03:13:17;100544.66;;;3.58;98.08
19096;BME280;9680;52.520;13.332;2023-12-14T03:15:45;100544.63;;;3.59;98.60
19096;BME280;9680;52.520;13.332;2023-12-14T03:18:14;100551.47;;;3.62;98.34
19096;BME280;9680;52.520;13.332;2023-12-14T03:20:41;100553.19;;;3.61;98.47
19096;BME280;9680;52.520;13.332;2023-12-14T03:23:07;100548.88;;;3.62;98.24
19096;BME280;9680;52.520;13.332;2023-12-14T03:25:34;100554.91;;;3.62;98.52
19096;BME280;9680;52.520;13.332;2023-12-14T03:28:01;100560.94;;;3.60;97.78
19096;BME280;9680;52.520;13.332;2023-12-14T03:30:27;100562.75;;;3.53;98.20
19096;BME280;9680;52.520;13.332;2023-12-14T03:32:55;100563.63;;;3.52;98.85
19096;BME280;9680;52.520;13.332;2023-12-14T03:35:22;100563.59;;;3.55;98.66
19096;BME280;9680;52.520;13.332;2023-12-14T03:37:49;100577.31;;;3.56;98.54
19096;BME280;9680;52.520;13.332;2023-12-14T03:40:15;100579.03;;;3.54;98.31
19096;BME280;9680;52.520;13.332;2023-12-14T03:42:42;100571.34;;;3.50;98.87
19096;BME280;9680;52.520;13.332;2023-12-14T03:45:09;100578.16;;;3.56;99.10
19096;BME280;9680;52.520;13.332;2023-12-14T03:47:36;100577.31;;;3.56;98.71
19096;BME280;9680;52.520;13.332;2023-12-14T03:50:05;100581.63;;;3.54;98.87
19096;BME280;9680;52.520;13.332;2023-12-14T03:52:32;100589.28;;;3.61;99.11
19096;BME280;9680;52.520;13.332;2023-12-14T03:54:59;100594.38;;;3.64;99.14
19096;BME280;9680;52.520;13.332;2023-12-14T03:57:27;100604.66;;;3.69;98.75
19096;BME280;9680;52.520;13.332;2023-12-14T03:59:54;100604.69;;;3.64;98.07
19096;BME280;9680;52.520;13.332;2023-12-14T04:02:20;100611.66;;;3.56;97.53
19096;BME280;9680;52.520;13.332;2023-12-14T04:04:47;100616.84;;;3.52;97.57
19096;BME280;9680;52.520;13.332;2023-12-14T04:07:15;100618.59;;;3.51;97.70
19096;BME280;9680;52.520;13.332;2023-12-14T04:09:43;100624.56;;;3.53;97.91
19096;BME280;9680;52.520;13.332;2023-12-14T04:12:11;100620.28;;;3.50;97.58
19096;BME280;9680;52.520;13.332;2023-12-14T04:14:37;100620.34;;;3.44;97.77
19096;BME280;9680;52.520;13.332;2023-12-14T04:17:04;100626.38;;;3.45;97.86
19096;BME280;9680;52.520;13.332;2023-12-14T04:19:31;100633.25;;;3.41;98.17
19096;BME280;9680;52.520;13.332;2023-12-14T04:21:57;100635.03;;;3.36;98.30
19096;BME280;9680;52.520;13.332;2023-12-14T04:24:26;100638.44;;;3.40;98.82
19096;BME280;9680;52.520;13.332;2023-12-14T04:26:53;100641.00;;;3.43;98.85
19096;BME280;9680;52.520;13.332;2023-12-14T04:29:19;100651.25;;;3.46;98.82
19096;BME280;9680;52.520;13.332;2023-12-14T04:31:46;100651.22;;;3.49;98.80
19096;BME280;9680;52.520;13.332;2023-12-14T04:34:13;100649.56;;;3.45;98.70
19096;BME280;9680;52.520;13.332;2023-12-14T04:36:41;100648.69;;;3.46;98.84
19096;BME280;9680;52.520;13.332;2023-12-14T04:39:08;100653.78;;;3.52;99.31
19096;BME280;9680;52.520;13.332;2023-12-14T04:41:36;100651.09;;;3.61;99.08
19096;BME280;9680;52.520;13.332;2023-12-14T04:44:03;100645.97;;;3.58;98.13
19096;BME280;9680;52.520;13.332;2023-12-14T04:46:30;100652.06;;;3.51;98.04
19096;BME280;9680;52.520;13.332;2023-12-14T04:48:56;100653.84;;;3.46;98.41
19096;BME280;9680;52.520;13.332;2023-12-14T04:51:23;100658.97;;;3.47;98.77
19096;BME280;9680;52.520;13.332;2023-12-14T04:53:50;100653.88;;;3.43;98.66
19096;BME280;9680;52.520;13.332;2023-12-14T04:56:16;100666.72;;;3.46;99.18
19096;BME280;9680;52.520;13.332;2023-12-14T04:58:45;100674.34;;;3.55;98.81
19096;BME280;9680;52.520;13.332;2023-12-14T05:01:12;100672.63;;;3.53;99.31
19096;BME280;9680;52.520;13.332;2023-12-14T05:03:38;100680.31;;;3.59;99.13
19096;BME280;9680;52.520;13.332;2023-12-14T05:06:05;100682.84;;;3.62;99.04
19096;BME280;9680;52.520;13.332;2023-12-14T05:08:32;100686.25;;;3.64;99.00
19096;BME280;9680;52.520;13.332;2023-12-14T05:10:59;100684.56;;;3.66;99.18
19096;BME280;9680;52.520;13.332;2023-12-14T05:13:26;100696.59;;;3.62;98.31
19096;BME280;9680;52.520;13.332;2023-12-14T05:15:54;100704.38;;;3.58;98.45
19096;BME280;9680;52.520;13.332;2023-12-14T05:18:20;100703.56;;;3.53;98.53
19096;BME280;9680;52.520;13.332;2023-12-14T05:20:47;100709.59;;;3.48;98.76
19096;BME280;9680;52.520;13.332;2023-12-14T05:23:14;100713.09;;;3.43;99.16
19096;BME280;9680;52.520;13.332;2023-12-14T05:25:40;100720.81;;;3.44;99.36
19096;BME280;9680;52.520;13.332;2023-12-14T05:28:07;100729.44;;;3.42;99.73
19096;BME280;9680;52.520;13.332;2023-12-14T05:30:34;100742.31;;;3.42;99.87
19096;BME280;9680;52.520;13.332;2023-12-14T05:33:02;100734.56;;;3.45;100.00
19096;BME280;9680;52.520;13.332;2023-12-14T05:35:29;100742.19;;;3.53;100.00
19096;BME280;9680;52.520;13.332;2023-12-14T05:37:56;100743.88;;;3.58;100.00
19096;BME280;9680;52.520;13.332;2023-12-14T05:40:22;100742.09;;;3.62;100.00
19096;BME280;9680;52.520;13.332;2023-12-14T05:42:49;100756.69;;;3.63;99.91
19096;BME280;9680;52.520;13.332;2023-12-14T05:45:16;100748.06;;;3.69;100.00
19096;BME280;9680;52.520;13.332;2023-12-14T05:47:43;100762.63;;;3.74;99.72
19096;BME280;9680;52.520;13.332;2023-12-14T05:50:11;100761.75;;;3.75;99.46
19096;BME280;9680;52.520;13.332;2023-12-14T05:52:38;100762.56;;;3.79;99.70
19096;BME280;9680;52.520;13.332;2023-12-14T05:55:07;100765.16;;;3.79;99.39
19096;BME280;9680;52.520;13.332;2023-12-14T05:57:34;100769.38;;;3.86;99.51
19096;BME280;9680;52.520;13.332;2023-12-14T06:00:01;100780.53;;;3.88;98.95
19096;BME280;9680;52.520;13.332;2023-12-14T06:02:30;100777.91;;;3.93;99.20
19096;BME280;9680;52.520;13.332;2023-12-14T06:04:57;100777.91;;;3.93;98.92
19096;BME280;9680;52.520;13.332;2023-12-14T06:07:25;100773.63;;;3.90;98.48
19096;BME280;9680;52.520;13.332;2023-12-14T06:09:52;100782.25;;;3.86;97.91
19096;BME280;9680;52.520;13.332;2023-12-14T06:12:18;100786.63;;;3.79;97.76
19096;BME280;9680;52.520;13.332;2023-12-14T06:14:45;100795.22;;;3.78;97.98
19096;BME280;9680;52.520;13.332;2023-12-14T06:17:12;100790.94;;;3.77;97.82
19096;BME280;9680;52.520;13.332;2023-12-14T06:19:38;100797.81;;;3.77;97.72
19096;BME280;9680;52.520;13.332;2023-12-14T06:22:05;100798.69;;;3.77;97.97
19096;BME280;9680;52.520;13.332;2023-12-14T06:24:33;100806.41;;;3.77;97.43
19096;BME280;9680;52.520;13.332;2023-12-14T06:27:00;100807.34;;;3.70;97.66
19096;BME280;9680;52.520;13.332;2023-12-14T06:29:26;100811.63;;;3.71;98.09
19096;BME280;9680;52.520;13.332;2023-12-14T06:31:53;100811.59;;;3.73;98.09
19096;BME280;9680;52.520;13.332;2023-12-14T06:34:20;100812.47;;;3.73;98.29
19096;BME280;9680;52.520;13.332;2023-12-14T06:36:46;100814.16;;;3.74;98.32
19096;BME280;9680;52.520;13.332;2023-12-14T06:39:13;100816.78;;;3.70;98.18
19096;BME280;9680;52.520;13.332;2023-12-14T06:41:41;100820.22;;;3.70;98.11
19096;BME280;9680;52.520;13.332;2023-12-14T06:44:08;100827.91;;;3.73;98.12
19096;BME280;9680;52.520;13.332;2023-12-14T06:46:35;100836.47;;;3.77;97.95
19096;BME280;9680;52.520;13.332;2023-12-14T06:49:02;100840.84;;;3.70;97.49
19096;BME280;9680;52.520;13.332;2023-12-14T06:51:29;100845.09;;;3.73;98.01
19096;BME280;9680;52.520;13.332;2023-12-14T06:53:55;100845.97;;;3.73;98.01
19096;BME280;9680;52.520;13.332;2023-12-14T06:56:22;100855.31;;;3.82;98.12
19096;BME280;9680;52.520;13.332;2023-12-14T06:58:50;100857.91;;;3.82;97.74
19096;BME280;9680;52.520;13.332;2023-12-14T07:01:17;100862.19;;;3.85;97.12
19096;BME280;9680;52.520;13.332;2023-12-14T07:03:44;100865.66;;;3.79;96.84
19096;BME280;9680;52.520;13.332;2023-12-14T07:06:12;100869.09;;;3.79;96.82
19096;BME280;9680;52.520;13.332;2023-12-14T07:08:39;100879.34;;;3.84;96.86
19096;BME280;9680;52.520;13.332;2023-12-14T07:11:07;100879.34;;;3.87;96.93
19096;BME280;9680;52.520;13.332;2023-12-14T07:13:33;100887.88;;;3.94;96.70
19096;BME280;9680;52.520;13.332;2023-12-14T07:16:04;100894.78;;;3.92;95.96
19096;BME280;9680;52.520;13.332;2023-12-14T07:18:31;100899.09;;;3.90;95.50
19096;BME280;9680;52.520;13.332;2023-12-14T07:20:58;100901.69;;;3.87;95.52
19096;BME280;9680;52.520;13.332;2023-12-14T07:23:25;100907.63;;;3.95;95.79
19096;BME280;9680;52.520;13.332;2023-12-14T07:25:52;100917.94;;;3.98;95.29
19096;BME280;9680;52.520;13.332;2023-12-14T07:28:19;100925.69;;;3.95;94.96
19096;BME280;9680;52.520;13.332;2023-12-14T07:30:46;100921.38;;;3.96;95.25
19096;BME280;9680;52.520;13.332;2023-12-14T07:33:14;100929.97;;;3.96;95.02
19096;BME280;9680;52.520;13.332;2023-12-14T07:35:41;100931.69;;;3.97;95.32
19096;BME280;9680;52.520;13.332;2023-12-14T07:38:08;100938.53;;;4.01;95.16
19096;BME280;9680;52.520;13.332;2023-12-14T07:40:34;100947.91;;;4.08;95.43
19096;BME280;9680;52.520;13.332;2023-12-14T07:43:00;100945.31;;;4.13;95.26
19096;BME280;9680;52.520;13.332;2023-12-14T07:45:27;100950.44;;;4.15;94.95
19096;BME280;9680;52.520;13.332;2023-12-14T07:47:54;100951.34;;;4.12;94.59
19096;BME280;9680;52.520;13.332;2023-12-14T07:50:22;100954.81;;;4.06;94.01
19096;BME280;9680;52.520;13.332;2023-12-14T07:52:48;100952.28;;;4.02;94.14
19096;BME280;9680;52.520;13.332;2023-12-14T07:55:15;100957.38;;;4.06;94.56
19096;BME280;9680;52.520;13.332;2023-12-14T07:57:42;100964.22;;;4.14;94.56
19096;BME280;9680;52.520;13.332;2023-12-14T08:00:10;100965.91;;;4.18;94.49
19096;BME280;9680;52.520;13.332;2023-12-14T08:02:37;100966.75;;;4.18;94.10
19096;BME280;9680;52.520;13.332;2023-12-14T08:05:05;100970.19;;;4.19;94.36
19096;BME280;9680;52.520;13.332;2023-12-14T08:07:33;100970.97;;;4.27;94.75
19096;BME280;9680;52.520;13.332;2023-12-14T08:10:00;100977.81;;;4.34;94.35
19096;BME280;9680;52.520;13.332;2023-12-14T08:12:27;100982.06;;;4.40;94.54
19096;BME280;9680;52.520;13.332;2023-12-14T08:14:54;100985.50;;;4.41;93.84
19096;BME280;9680;52.520;13.332;2023-12-14T08:17:20;100990.66;;;4.39;92.82
19096;BME280;9680;52.520;13.332;2023-12-14T08:19:47;100995.88;;;4.33;92.18
19096;BME280;9680;52.520;13.332;2023-12-14T08:22:14;100993.31;;;4.34;92.56
19096;BME280;9680;52.520;13.332;2023-12-14T08:24:42;100999.31;;;4.36;92.25
19096;BME280;9680;52.520;13.332;2023-12-14T08:27:09;101007.00;;;4.40;92.07
19096;BME280;9680;52.520;13.332;2023-12-14T08:29:35;101005.25;;;4.43;92.17
19096;BME280;9680;52.520;13.332;2023-12-14T08:32:03;101012.97;;;4.46;92.06
19096;BME280;9680;52.520;13.332;2023-12-14T08:34:29;101021.53;;;4.48;91.99
19096;BME280;9680;52.520;13.332;2023-12-14T08:36:56;101028.47;;;4.45;91.04
19096;BME280;9680;52.520;13.332;2023-12-14T08:39:23;101033.69;;;4.39;91.21
19096;BME280;9680;52.520;13.332;2023-12-14T08:41:51;101035.44;;;4.30;90.81
19096;BME280;9680;52.520;13.332;2023-12-14T08:44:18;101038.06;;;4.21;90.74
19096;BME280;9680;52.520;13.332;2023-12-14T08:46:46;101046.72;;;4.15;91.49
19096;BME280;9680;52.520;13.332;2023-12-14T08:49:13;101048.44;;;4.15;91.45
19096;BME280;9680;52.520;13.332;2023-12-14T08:51:41;101049.31;;;4.14;91.73
19096;BME280;9680;52.520;13.332;2023-12-14T08:54:08;101061.31;;;4.15;91.53
19096;BME280;9680;52.520;13.332;2023-12-14T08:56:35;101057.06;;;4.07;91.80
19096;BME280;9680;52.520;13.332;2023-12-14T08:59:03;101057.91;;;4.10;92.03
19096;BME280;9680;52.520;13.332;2023-12-14T09:01:30;101065.63;;;4.13;92.23
19096;BME280;9680;52.520;13.332;2023-12-14T09:03:56;101067.34;;;4.15;92.27
19096;BME280;9680;52.520;13.332;2023-12-14T09:06:23;101073.34;;;4.20;92.61
19096;BME280;9680;52.520;13.332;2023-12-14T09:08:50;101075.00;;;4.31;92.52
19096;BME280;9680;52.520;13.332;2023-12-14T09:11:17;101079.34;;;4.21;91.29
19096;BME280;9680;52.520;13.332;2023-12-14T09:13:44;101087.97;;;4.17;91.88
19096;BME280;9680;52.520;13.332;2023-12-14T09:16:12;101089.69;;;4.15;92.32
19096;BME280;9680;52.520;13.332;2023-12-14T09:18:38;101101.69;;;4.22;92.64
19096;BME280;9680;52.520;13.332;2023-12-14T09:21:07;101108.53;;;4.29;92.57
19096;BME280;9680;52.520;13.332;2023-12-14T09:23:34;101110.25;;;4.27;91.95
19096;BME280;9680;52.520;13.332;2023-12-14T09:26:01;101115.41;;;4.27;92.08
19096;BME280;9680;52.520;13.332;2023-12-14T09:28:27;101118.03;;;4.22;91.69
19096;BME280;9680;52.520;13.332;2023-12-14T09:30:54;101113.72;;;4.20;91.98
19096;BME280;9680;52.520;13.332;2023-12-14T09:33:22;101122.31;;;4.22;91.76
19096;BME280;9680;52.520;13.332;2023-12-14T09:35:49;101124.94;;;4.13;91.75
19096;BME280;9680;52.520;13.332;2023-12-14T09:38:16;101127.56;;;4.08;91.88
19096;BME280;9680;52.520;13.332;2023-12-14T09:40:43;101119.88;;;3.99;91.92
19096;BME280;9680;52.520;13.332;2023-12-14T09:43:10;101126.72;;;4.01;92.03
19096;BME280;9680;52.520;13.332;2023-12-14T09:45:38;101137.03;;;4.03;92.61
19096;BME280;9680;52.520;13.332;2023-12-14T09:48:10;101134.44;;;4.07;92.38
19096;BME280;9680;52.520;13.332;2023-12-14T09:50:40;101140.44;;;4.06;92.03
19096;BME280;9680;52.520;13.332;2023-12-14T09:53:07;101139.56;;;4.11;92.14
19096;BME280;9680;52.520;13.332;2023-12-14T09:55:34;101145.53;;;4.19;92.43
19096;BME280;9680;52.520;13.332;2023-12-14T09:58:00;101144.69;;;4.20;91.85
19096;BME280;9680;52.520;13.332;2023-12-14T10:00:35;101137.81;;;4.19;91.45
19096;BME280;9680;52.520;13.332;2023-12-14T10:03:21;101135.25;;;4.16;91.59
19096;BME280;9680;52.520;13.332;2023-12-14T10:05:50;101145.53;;;4.19;91.68
19096;BME280;9680;52.520;13.332;2023-12-14T10:08:17;101149.88;;;4.18;91.62
19096;BME280;9680;52.520;13.332;2023-12-14T10:10:44;101152.44;;;4.21;91.27
19096;BME280;9680;52.520;13.332;2023-12-14T10:13:11;101155.00;;;4.21;91.90
19096;BME280;9680;52.520;13.332;2023-12-14T10:15:41;101158.41;;;4.25;91.80
19096;BME280;9680;52.520;13.332;2023-12-14T10:18:08;101154.94;;;4.35;92.26
19096;BME280;9680;52.520;13.332;2023-12-14T10:20:34;101165.16;;;4.51;92.11
19096;BME280;9680;52.520;13.332;2023-12-14T10:23:04;101165.19;;;4.46;90.43
19096;BME280;9680;52.520;13.332;2023-12-14T10:25:31;101166.03;;;4.50;90.77
19096;BME280;9680;52.520;13.332;2023-12-14T10:27:58;101167.72;;;4.57;90.92
19096;BME280;9680;52.520;13.332;2023-12-14T10:30:28;101178.81;;;4.69;91.19
19096;BME280;9680;52.520;13.332;2023-12-14T10:32:55;101171.91;;;4.75;90.30
19096;BME280;9680;52.520;13.332;2023-12-14T10:35:22;101170.19;;;4.73;89.51
19096;BME280;9680;52.520;13.332;2023-12-14T10:37:51;101184.81;;;4.75;89.40
19096;BME280;9680;52.520;13.332;2023-12-14T10:40:19;101188.22;;;4.76;89.37
19096;BME280;9680;52.520;13.332;2023-12-14T10:42:47;101195.09;;;4.81;89.13
19096;BME280;9680;52.520;13.332;2023-12-14T10:45:16;101193.34;;;4.82;88.98
19096;BME280;9680;52.520;13.332;2023-12-14T10:47:46;101193.31;;;4.85;88.68
19096;BME280;9680;52.520;13.332;2023-12-14T10:50:14;101195.94;;;4.82;88.56
19096;BME280;9680;52.520;13.332;2023-12-14T10:52:42;101196.72;;;4.92;88.60
19096;BME280;9680;52.520;13.332;2023-12-14T10:55:13;101199.28;;;5.00;88.54
19096;BME280;9680;52.520;13.332;2023-12-14T10:57:43;101202.69;;;5.03;87.94
19096;BME280;9680;52.520;13.332;2023-12-14T11:00:12;101211.28;;;5.05;87.56
19096;BME280;9680;52.520;13.332;2023-12-14T11:02:45;101206.22;;;4.88;86.41
19096;BME280;9680;52.520;13.332;2023-12-14T11:05:13;101208.84;;;4.84;87.12
19096;BME280;9680;52.520;13.332;2023-12-14T11:07:49;101207.16;;;4.75;86.70
19096;BME280;9680;52.520;13.332;2023-12-14T11:10:20;101209.81;;;4.67;87.17
19096;BME280;9680;52.520;13.332;2023-12-14T11:12:54;101208.09;;;4.64;87.42
19096;BME280;9680;52.520;13.332;2023-12-14T11:15:23;101210.66;;;4.64;87.08
19096;BME280;9680;52.520;13.332;2023-12-14T11:18:20;101208.97;;;4.63;87.66
19096;BME280;9680;52.520;13.332;2023-12-14T11:20:48;101212.34;;;4.72;87.65
19096;BME280;9680;52.520;13.332;2023-12-14T11:23:17;101219.19;;;4.79;87.72
19096;BME280;9680;52.520;13.332;2023-12-14T11:25:48;101218.31;;;4.85;87.81
19096;BME280;9680;52.520;13.332;2023-12-14T11:28:16;101223.44;;;4.86;87.29
19096;BME280;9680;52.520;13.332;2023-12-14T11:30:45;101217.47;;;4.83;86.46
19096;BME280;9680;52.520;13.332;2023-12-14T11:33:13;101223.41;;;4.94;87.15
19096;BME280;9680;52.520;13.332;2023-12-14T11:35:39;101231.13;;;4.97;86.50
19096;BME280;9680;52.520;13.332;2023-12-14T11:38:06;101237.97;;;5.01;86.38
19096;BME280;9680;52.520;13.332;2023-12-14T11:40:37;101238.88;;;4.95;85.55
19096;BME280;9680;52.520;13.332;2023-12-14T11:43:04;101247.53;;;4.85;85.25
19096;BME280;9680;52.520;13.332;2023-12-14T11:45:34;101251.91;;;4.75;85.50
19096;BME280;9680;52.520;13.332;2023-12-14T11:48:01;101254.50;;;4.71;85.45
19096;BME280;9680;52.520;13.332;2023-12-14T11:50:31;101255.41;;;4.65;84.93
19096;BME280;9680;52.520;13.332;2023-12-14T11:52:59;101261.44;;;4.58;85.58
19096;BME280;9680;52.520;13.332;2023-12-14T11:55:26;101270.94;;;4.57;85.91
19096;BME280;9680;52.520;13.332;2023-12-14T11:57:53;101270.91;;;4.56;85.69
19096;BME280;9680;52.520;13.332;2023-12-14T12:00:23;101276.94;;;4.62;86.32
19096;BME280;9680;52.520;13.332;2023-12-14T12:02:52;101282.03;;;4.73;86.56
19096;BME280;9680;52.520;13.332;2023-12-14T12:05:36;101277.66;;;4.88;86.54
19096;BME280;9680;52.520;13.332;2023-12-14T12:08:03;101283.63;;;4.99;86.39
19096;BME280;9680;52.520;13.332;2023-12-14T12:10:47;101281.00;;;5.07;86.18
19096;BME280;9680;52.520;13.332;2023-12-14T12:13:15;101281.81;;;5.10;85.55
19096;BME280;9680;52.520;13.332;2023-12-14T12:15:43;101281.81;;;5.12;85.42
19096;BME280;9680;52.520;13.332;2023-12-14T12:18:13;101295.56;;;5.16;85.40
19096;BME280;9680;52.520;13.332;2023-12-14T12:20:40;101292.97;;;5.16;84.68
19096;BME280;9680;52.520;13.332;2023-12-14T12:23:07;101292.09;;;5.17;84.78
19096;BME280;9680;52.520;13.332;2023-12-14T12:25:34;101284.31;;;5.24;84.89
19096;BME280;9680;52.520;13.332;2023-12-14T12:28:02;101296.47;;;5.13;84.04
19096;BME280;9680;52.520;13.332;2023-12-14T12:30:29;101296.47;;;5.08;83.92
19096;BME280;9680;52.520;13.332;2023-12-14T12:32:56;101297.38;;;5.01;84.16
19096;BME280;9680;52.520;13.332;2023-12-14T12:35:24;101305.16;;;4.95;84.61
19096;BME280;9680;52.520;13.332;2023-12-14T12:37:51;101310.34;;;4.89;84.87
19096;BME280;9680;52.520;13.332;2023-12-14T12:40:20;101314.69;;;4.84;85.00
19096;BME280;9680;52.520;13.332;2023-12-14T12:42:47;101317.31;;;4.70;85.51
19096;BME280;9680;52.520;13.332;2023-12-14T12:45:15;101320.78;;;4.69;86.08
19096;BME280;9680;52.520;13.332;2023-12-14T12:47:43;101317.34;;;4.63;86.65
19096;BME280;9680;52.520;13.332;2023-12-14T12:50:10;101319.91;;;4.70;87.01
19096;BME280;9680;52.520;13.332;2023-12-14T12:52:38;101323.34;;;4.73;86.93
19096;BME280;9680;52.520;13.332;2023-12-14T12:55:06;101326.75;;;4.77;86.83
19096;BME280;9680;52.520;13.332;2023-12-14T12:57:33;101328.47;;;4.81;86.66
19096;BME280;9680;52.520;13.332;2023-12-14T12:59:59;101326.72;;;4.85;86.50
19096;BME280;9680;52.520;13.332;2023-12-14T13:02:26;101331.03;;;4.86;86.69